createdAt,value
2022-09-25T00:00:06.441Z,81.42
2022-09-25T00:05:09.211Z,80.04
2022-09-25T00:10:10.976Z,79.87
2022-09-25T00:15:13.923Z,78.51
2022-09-25T00:20:17.285Z,78.79
2022-09-25T00:25:19.426Z,79.18
2022-09-25T00:30:22.779Z,79.33
2022-09-25T00:35:24.978Z,78.97
2022-09-25T00:40:26.880Z,78.77
2022-09-25T00:45:30.119Z,79.09
2022-09-25T00:50:36.301Z,77.25
2022-09-25T00:55:40.135Z,77.89
2022-09-25T01:00:43.760Z,76.47
2022-09-25T01:05:46.018Z,77.34
2022-09-25T01:10:47.665Z,78.10
2022-09-25T01:15:55.935Z,78.47
2022-09-25T01:21:28.294Z,77.98
2022-09-25T01:26:55.971Z,78.40
2022-09-25T01:32:02.302Z,78.36
2022-09-25T01:37:08.358Z,78.50
2022-09-25T01:42:18.671Z,77.88
2022-09-25T01:47:26.862Z,77.92
2022-09-25T01:52:33.291Z,77.58
2022-09-25T01:57:40.770Z,78.69
2022-09-25T02:02:48.747Z,78.27
2022-09-25T02:07:55.014Z,78.80
2022-09-25T02:13:02.897Z,79.42
2022-09-25T02:18:09.118Z,80.51
2022-09-25T02:23:17.785Z,81.02
2022-09-25T02:28:19.896Z,81.33
2022-09-25T02:33:23.256Z,82.35
2022-09-25T02:38:24.900Z,82.66
2022-09-25T02:43:36.542Z,82.91
2022-09-25T02:48:49.876Z,83.77
2022-09-25T02:53:55.829Z,84.27
2022-09-25T02:59:02.358Z,84.19
2022-09-25T03:04:07.048Z,84.75
2022-09-25T03:09:11.211Z,84.70
2022-09-25T03:14:13.010Z,85.18
2022-09-25T03:19:16.462Z,85.17
2022-09-25T03:24:18.484Z,85.13
2022-09-25T03:29:20.930Z,85.34
2022-09-25T03:34:23.865Z,86.18
2022-09-25T03:39:25.656Z,86.41
2022-09-25T03:44:27.523Z,86.63
2022-09-25T03:49:30.938Z,86.89
2022-09-25T03:54:32.923Z,87.25
2022-09-25T03:59:34.871Z,87.28
2022-09-25T04:04:37.996Z,88.34
2022-09-25T04:09:39.968Z,88.08
2022-09-25T04:14:41.988Z,87.24
2022-09-25T04:19:45.299Z,87.38
2022-09-25T04:24:47.311Z,87.79
2022-09-25T04:29:50.120Z,88.19
2022-09-25T04:34:53.321Z,87.89
2022-09-25T04:39:55.769Z,88.55
2022-09-25T04:44:58.058Z,88.48
2022-09-25T04:50:01.522Z,88.89
2022-09-25T04:55:03.835Z,89.29
2022-09-25T05:00:06.901Z,89.60
2022-09-25T05:05:10.243Z,89.76
2022-09-25T05:10:12.254Z,90.53
2022-09-25T05:15:15.014Z,90.43
2022-09-25T05:20:18.016Z,90.58
2022-09-25T05:25:19.664Z,90.49
2022-09-25T05:30:21.615Z,89.89
2022-09-25T05:35:25.981Z,89.50
2022-09-25T05:40:27.916Z,88.45
2022-09-25T05:45:30.155Z,88.70
2022-09-25T05:50:33.736Z,88.63
2022-09-25T05:55:35.343Z,88.42
2022-09-25T06:00:37.868Z,88.59
2022-09-25T06:05:41.246Z,88.42
2022-09-25T06:10:42.912Z,88.25
2022-09-25T06:15:44.967Z,87.59
2022-09-25T06:20:48.625Z,87.16
2022-09-25T06:25:50.218Z,85.92
2022-09-25T06:30:51.944Z,84.28
2022-09-25T06:35:54.954Z,82.79
2022-09-25T06:41:00.412Z,80.40
2022-09-25T06:46:03.535Z,80.66
2022-09-25T06:51:06.942Z,81.09
2022-09-25T06:56:10.360Z,81.41
2022-09-25T07:01:12.116Z,80.68
2022-09-25T07:06:16.851Z,80.15
2022-09-25T07:11:21.244Z,78.25
2022-09-25T07:16:25.589Z,76.98
2022-09-25T07:21:29.128Z,75.05
2022-09-25T07:26:30.901Z,74.17
2022-09-25T07:31:34.730Z,75.77
2022-09-25T07:36:39.383Z,75.38
2022-09-25T07:41:41.444Z,71.49
2022-09-25T07:46:43.577Z,71.78
2022-09-25T07:51:46.897Z,70.36
2022-09-25T07:56:48.622Z,67.50
2022-09-25T08:01:53.927Z,68.33
2022-09-25T08:06:58.381Z,66.44
2022-09-25T08:12:00.110Z,68.15
2022-09-25T08:17:02.288Z,66.78
2022-09-25T08:22:05.748Z,66.88
2022-09-25T08:27:07.767Z,66.59
2022-09-25T08:32:09.487Z,66.19
2022-09-25T08:37:12.736Z,63.52
2022-09-25T08:42:20.259Z,63.76
2022-09-25T08:47:24.733Z,62.50
2022-09-25T08:52:27.847Z,61.60
2022-09-25T08:57:34.007Z,63.33
2022-09-25T09:02:42.350Z,63.33
2022-09-25T09:07:52.964Z,63.84
2022-09-25T09:13:00.704Z,62.58
2022-09-25T09:18:16.385Z,61.67
2022-09-25T09:23:22.044Z,64.17
2022-09-25T09:28:57.678Z,63.74
2022-09-25T09:34:46.552Z,62.53
2022-09-25T09:40:05.972Z,61.55
2022-09-25T09:45:16.202Z,58.98
2022-09-25T09:50:29.202Z,57.14
2022-09-25T09:55:40.448Z,54.05
2022-09-25T10:00:43.113Z,52.55
2022-09-25T10:05:47.649Z,52.87
2022-09-25T10:10:53.070Z,53.26
2022-09-25T10:16:00.220Z,52.34
2022-09-25T10:21:10.204Z,52.71
2022-09-25T10:26:29.203Z,52.59
2022-09-25T10:31:33.070Z,50.37
2022-09-25T10:36:39.981Z,51.64
2022-09-25T10:41:44.198Z,49.49
2022-09-25T10:46:45.835Z,46.93
2022-09-25T10:52:02.642Z,50.50
2022-09-25T10:57:17.093Z,44.77
2022-09-25T11:02:29.405Z,43.80
2022-09-25T11:07:31.860Z,43.83
2022-09-25T11:12:34.964Z,41.86
2022-09-25T11:17:39.909Z,45.71
2022-09-25T11:22:46.295Z,50.42
2022-09-25T11:27:54.311Z,48.89
2022-09-25T11:33:04.351Z,50.75
2022-09-25T11:38:16.903Z,50.84
2022-09-25T11:43:30.327Z,52.26
2022-09-25T11:48:42.607Z,52.78
2022-09-25T11:53:53.264Z,54.61
2022-09-25T11:59:23.582Z,49.10
2022-09-25T12:04:45.886Z,48.35
2022-09-25T12:10:06.767Z,47.78
2022-09-25T12:15:22.177Z,50.42
2022-09-25T12:20:33.681Z,49.49
2022-09-25T12:25:48.187Z,48.08
2022-09-25T12:31:05.432Z,46.83
2022-09-25T12:36:12.841Z,48.98
2022-09-25T12:41:20.955Z,51.43
2022-09-25T12:46:28.310Z,53.43
2022-09-25T12:51:36.834Z,53.03
2022-09-25T12:56:46.187Z,52.48
2022-09-25T13:01:58.203Z,53.53
2022-09-25T13:07:08.460Z,51.04
2022-09-25T13:12:19.264Z,51.69
2022-09-25T13:17:22.995Z,49.68
2022-09-25T13:22:26.411Z,49.97
2022-09-25T13:27:39.896Z,50.81
2022-09-25T13:32:49.002Z,52.56
2022-09-25T13:37:54.942Z,53.64
2022-09-25T13:43:16.747Z,52.18
2022-09-25T13:48:35.512Z,51.29
2022-09-25T13:53:53.700Z,52.68
2022-09-25T13:59:27.210Z,54.59
2022-09-25T14:04:36.776Z,54.92
2022-09-25T14:09:43.917Z,57.18
2022-09-25T14:14:50.226Z,57.22
2022-09-25T14:19:55.867Z,57.69
2022-09-25T14:24:57.911Z,57.84
2022-09-25T14:30:07.239Z,57.12
2022-09-25T14:35:28.143Z,58.26
2022-09-25T14:40:35.024Z,59.43
2022-09-25T14:45:59.659Z,60.59
2022-09-25T14:51:07.254Z,58.75
2022-09-25T14:56:12.183Z,59.09
2022-09-25T15:01:23.415Z,60.29
2022-09-25T15:06:29.179Z,61.01
2022-09-25T15:11:41.083Z,61.60
2022-09-25T15:16:43.777Z,62.12
2022-09-25T15:21:47.933Z,62.75
2022-09-25T15:26:55.039Z,62.74
2022-09-25T15:31:56.947Z,62.27
2022-09-25T15:37:17.474Z,61.37
2022-09-25T15:42:19.802Z,62.05
2022-09-25T15:47:53.134Z,61.98
2022-09-25T15:52:58.837Z,62.91
2022-09-25T15:58:12.796Z,64.08
2022-09-25T16:03:20.104Z,63.75
2022-09-25T16:08:29.975Z,63.95
2022-09-25T16:13:31.822Z,65.04
2022-09-25T16:18:40.371Z,65.71
2022-09-25T16:23:44.185Z,66.30
2022-09-25T16:28:59.974Z,66.54
2022-09-25T16:34:02.847Z,68.17
2022-09-25T16:39:20.944Z,67.67
2022-09-25T16:44:36.529Z,69.04
2022-09-25T16:49:38.219Z,69.38
2022-09-25T16:54:41.307Z,69.18
2022-09-25T16:59:42.947Z,68.36
2022-09-25T17:04:45.081Z,69.02
2022-09-25T17:09:48.416Z,69.88
2022-09-25T17:14:50.475Z,71.20
2022-09-25T17:19:52.815Z,72.25
2022-09-25T17:24:59.042Z,72.75
2022-09-25T17:30:01.520Z,73.34
2022-09-25T17:35:15.567Z,74.48
2022-09-25T17:40:20.607Z,75.84
2022-09-25T17:45:28.891Z,76.18
2022-09-25T17:50:31.273Z,76.41
2022-09-25T17:55:34.377Z,75.89
2022-09-25T18:00:36.041Z,75.61
2022-09-25T18:05:38.403Z,75.85
2022-09-25T18:10:42.122Z,76.30
2022-09-25T18:15:48.165Z,76.59
2022-09-25T18:20:50.193Z,76.83
2022-09-25T18:25:55.239Z,77.19
2022-09-25T18:30:57.299Z,76.89
2022-09-25T18:35:59.023Z,77.16
2022-09-25T18:41:02.993Z,77.21
2022-09-25T18:46:05.673Z,77.40
2022-09-25T18:51:07.769Z,77.71
2022-09-25T18:56:11.581Z,78.63
2022-09-25T19:01:13.591Z,78.28
2022-09-25T19:06:16.144Z,79.28
2022-09-25T19:11:19.813Z,79.20
2022-09-25T19:16:22.123Z,79.44
2022-09-25T19:21:24.250Z,79.68
2022-09-25T19:26:28.127Z,79.89
2022-09-25T19:31:30.370Z,79.33
2022-09-25T19:36:33.554Z,79.60
2022-09-25T19:41:37.347Z,80.22
2022-09-25T19:46:39.464Z,80.27
2022-09-25T19:51:41.971Z,80.65
2022-09-25T19:56:45.383Z,80.93
2022-09-25T20:01:47.277Z,80.89
2022-09-25T20:06:49.631Z,81.17
2022-09-25T20:11:53.166Z,81.25
2022-09-25T20:16:54.969Z,81.63
2022-09-25T20:21:57.716Z,81.56
2022-09-25T20:27:01.087Z,82.03
2022-09-25T20:32:06.510Z,82.66
2022-09-25T20:37:08.693Z,83.20
2022-09-25T20:42:12.592Z,83.48
2022-09-25T20:47:16.346Z,84.08
2022-09-25T20:52:18.563Z,84.06
2022-09-25T20:57:22.130Z,84.25
2022-09-25T21:02:24.357Z,84.80
2022-09-25T21:07:26.564Z,85.22
2022-09-25T21:12:30.001Z,84.90
2022-09-25T21:17:31.648Z,84.88
2022-09-25T21:22:33.888Z,85.09
2022-09-25T21:27:36.936Z,85.22
2022-09-25T21:32:39.038Z,85.79
2022-09-25T21:37:40.682Z,86.07
2022-09-25T21:42:44.192Z,86.60
2022-09-25T21:47:49.177Z,87.26
2022-09-25T21:52:51.139Z,87.61
2022-09-25T21:57:54.499Z,87.46
2022-09-25T22:02:57.426Z,87.42
2022-09-25T22:08:00.802Z,87.93
2022-09-25T22:13:05.207Z,87.73
2022-09-25T22:18:07.540Z,87.92
2022-09-25T22:23:09.631Z,87.57
2022-09-25T22:28:13.217Z,86.96
2022-09-25T22:33:15.022Z,86.11
2022-09-25T22:38:17.170Z,85.68
2022-09-25T22:43:20.784Z,85.97
2022-09-25T22:48:22.944Z,85.93
2022-09-25T22:53:25.726Z,85.84
2022-09-25T22:58:29.217Z,86.24
2022-09-25T23:03:31.425Z,86.57
2022-09-25T23:08:33.839Z,87.14
2022-09-25T23:13:37.122Z,87.28
2022-09-25T23:18:39.032Z,87.23
2022-09-25T23:23:41.084Z,87.23
2022-09-25T23:28:44.352Z,87.31
2022-09-25T23:33:46.721Z,87.35
2022-09-25T23:38:49.687Z,87.69
2022-09-25T23:43:54.480Z,87.13
2022-09-25T23:48:56.753Z,87.05
2022-09-25T23:54:00.335Z,87.23
2022-09-25T23:59:04.623Z,87.80
